sensor_id;sensor_type;location;lat;lon;timestamp;P1;durP1;ratioP1;P2;durP2;ratioP2
68940;SDS011;55982;51.476;7.552;2023-02-01T00:01:44;49.60;;;20.45;;
68940;SDS011;55982;51.476;7.552;2023-02-01T00:04:10;51.20;;;18.67;;
68940;SDS011;55982;51.476;7.552;2023-02-01T00:06:35;52.38;;;19.52;;
68940;SDS011;55982;51.476;7.552;2023-02-01T00:09:01;51.38;;;17.65;;
68940;SDS011;55982;51.476;7.552;2023-02-01T00:11:26;48.67;;;16.90;;
68940;SDS011;55982;51.476;7.552;2023-02-01T00:13:52;44.28;;;16.77;;
68940;SDS011;55982;51.476;7.552;2023-02-01T00:16:22;42.28;;;16.17;;
68940;SDS011;55982;51.476;7.552;2023-02-01T00:18:51;40.17;;;14.52;;
68940;SDS011;55982;51.476;7.552;2023-02-01T00:21:20;38.83;;;14.23;;
68940;SDS011;55982;51.476;7.552;2023-02-01T00:23:46;35.75;;;14.20;;
68940;SDS011;55982;51.476;7.552;2023-02-01T00:26:19;38.65;;;13.43;;
68940;SDS011;55982;51.476;7.552;2023-02-01T00:28:50;43.90;;;13.23;;
68940;SDS011;55982;51.476;7.552;2023-02-01T00:31:15;39.58;;;13.60;;
68940;SDS011;55982;51.476;7.552;2023-02-01T00:33:41;40.78;;;12.85;;
68940;SDS011;55982;51.476;7.552;2023-02-01T00:36:07;38.55;;;11.70;;
68940;SDS011;55982;51.476;7.552;2023-02-01T00:38:33;37.13;;;11.93;;
68940;SDS011;55982;51.476;7.552;2023-02-01T00:43:30;34.20;;;11.43;;
68940;SDS011;55982;51.476;7.552;2023-02-01T00:45:56;39.20;;;11.85;;
68940;SDS011;55982;51.476;7.552;2023-02-01T00:48:21;31.08;;;10.23;;
68940;SDS011;55982;51.476;7.552;2023-02-01T00:50:47;25.40;;;9.63;;
68940;SDS011;55982;51.476;7.552;2023-02-01T00:53:12;29.02;;;9.05;;
68940;SDS011;55982;51.476;7.552;2023-02-01T00:55:37;25.88;;;8.73;;
68940;SDS011;55982;51.476;7.552;2023-02-01T00:58:03;32.45;;;9.00;;
68940;SDS011;55982;51.476;7.552;2023-02-01T01:00:30;29.35;;;8.98;;
68940;SDS011;55982;51.476;7.552;2023-02-01T01:02:57;20.20;;;7.15;;
68940;SDS011;55982;51.476;7.552;2023-02-01T01:05:22;29.17;;;8.63;;
68940;SDS011;55982;51.476;7.552;2023-02-01T01:07:49;29.25;;;7.00;;
68940;SDS011;55982;51.476;7.552;2023-02-01T01:10:14;29.30;;;7.35;;
68940;SDS011;55982;51.476;7.552;2023-02-01T01:12:40;26.52;;;6.93;;
68940;SDS011;55982;51.476;7.552;2023-02-01T01:15:06;24.38;;;7.03;;
68940;SDS011;55982;51.476;7.552;2023-02-01T01:17:32;26.05;;;6.45;;
68940;SDS011;55982;51.476;7.552;2023-02-01T01:19:58;26.75;;;5.22;;
68940;SDS011;55982;51.476;7.552;2023-02-01T01:22:23;34.40;;;7.30;;
68940;SDS011;55982;51.476;7.552;2023-02-01T01:24:48;27.05;;;6.78;;
68940;SDS011;55982;51.476;7.552;2023-02-01T01:27:14;32.35;;;7.38;;
68940;SDS011;55982;51.476;7.552;2023-02-01T01:29:39;28.75;;;6.25;;
68940;SDS011;55982;51.476;7.552;2023-02-01T01:32:04;26.13;;;6.57;;
68940;SDS011;55982;51.476;7.552;2023-02-01T01:34:30;28.15;;;6.40;;
68940;SDS011;55982;51.476;7.552;2023-02-01T01:36:55;24.52;;;5.80;;
68940;SDS011;55982;51.476;7.552;2023-02-01T01:39:21;24.70;;;5.28;;
68940;SDS011;55982;51.476;7.552;2023-02-01T01:41:46;29.00;;;6.40;;
68940;SDS011;55982;51.476;7.552;2023-02-01T01:47:21;24.80;;;6.18;;
68940;SDS011;55982;51.476;7.552;2023-02-01T01:49:47;26.05;;;6.97;;
68940;SDS011;55982;51.476;7.552;2023-02-01T01:52:12;28.60;;;7.07;;
68940;SDS011;55982;51.476;7.552;2023-02-01T01:54:38;24.50;;;6.85;;
68940;SDS011;55982;51.476;7.552;2023-02-01T01:57:18;28.10;;;6.82;;
68940;SDS011;55982;51.476;7.552;2023-02-01T01:59:50;27.88;;;7.15;;
68940;SDS011;55982;51.476;7.552;2023-02-01T02:02:19;28.05;;;6.57;;
68940;SDS011;55982;51.476;7.552;2023-02-01T02:04:45;20.63;;;6.57;;
68940;SDS011;55982;51.476;7.552;2023-02-01T02:07:12;21.98;;;6.40;;
68940;SDS011;55982;51.476;7.552;2023-02-01T02:09:42;29.50;;;7.60;;
68940;SDS011;55982;51.476;7.552;2023-02-01T02:12:08;27.05;;;7.18;;
68940;SDS011;55982;51.476;7.552;2023-02-01T02:14:34;33.65;;;8.45;;
68940;SDS011;55982;51.476;7.552;2023-02-01T02:22:42;25.85;;;7.38;;
68940;SDS011;55982;51.476;7.552;2023-02-01T02:36:09;31.05;;;8.35;;
68940;SDS011;55982;51.476;7.552;2023-02-01T02:39:19;29.40;;;8.00;;
68940;SDS011;55982;51.476;7.552;2023-02-01T02:41:51;30.58;;;7.60;;
68940;SDS011;55982;51.476;7.552;2023-02-01T02:44:54;28.08;;;7.95;;
68940;SDS011;55982;51.476;7.552;2023-02-01T02:53:33;28.50;;;7.93;;
68940;SDS011;55982;51.476;7.552;2023-02-01T02:56:21;26.75;;;7.50;;
68940;SDS011;55982;51.476;7.552;2023-02-01T02:59:09;29.23;;;7.32;;
68940;SDS011;55982;51.476;7.552;2023-02-01T03:01:55;27.35;;;6.88;;
68940;SDS011;55982;51.476;7.552;2023-02-01T03:04:39;37.25;;;7.85;;
68940;SDS011;55982;51.476;7.552;2023-02-01T03:07:12;22.00;;;7.05;;
68940;SDS011;55982;51.476;7.552;2023-02-01T03:09:41;28.63;;;6.43;;
68940;SDS011;55982;51.476;7.552;2023-02-01T03:12:12;26.05;;;6.03;;
68940;SDS011;55982;51.476;7.552;2023-02-01T03:15:01;24.42;;;5.97;;
68940;SDS011;55982;51.476;7.552;2023-02-01T03:17:34;24.55;;;6.10;;
68940;SDS011;55982;51.476;7.552;2023-02-01T03:20:04;25.55;;;5.55;;
68940;SDS011;55982;51.476;7.552;2023-02-01T03:22:32;29.30;;;5.38;;
68940;SDS011;55982;51.476;7.552;2023-02-01T03:25:09;31.05;;;5.45;;
68940;SDS011;55982;51.476;7.552;2023-02-01T03:27:58;30.10;;;5.80;;
68940;SDS011;55982;51.476;7.552;2023-02-01T03:33:08;18.30;;;4.72;;
68940;SDS011;55982;51.476;7.552;2023-02-01T03:38:39;24.30;;;4.63;;
68940;SDS011;55982;51.476;7.552;2023-02-01T03:41:46;27.45;;;5.00;;
68940;SDS011;55982;51.476;7.552;2023-02-01T03:44:23;26.40;;;5.03;;
68940;SDS011;55982;51.476;7.552;2023-02-01T03:46:52;21.50;;;4.93;;
68940;SDS011;55982;51.476;7.552;2023-02-01T03:49:41;18.70;;;4.45;;
68940;SDS011;55982;51.476;7.552;2023-02-01T03:52:17;21.88;;;4.63;;
68940;SDS011;55982;51.476;7.552;2023-02-01T03:54:48;21.27;;;4.63;;
68940;SDS011;55982;51.476;7.552;2023-02-01T03:57:16;26.35;;;4.75;;
68940;SDS011;55982;51.476;7.552;2023-02-01T03:59:48;27.08;;;5.10;;
68940;SDS011;55982;51.476;7.552;2023-02-01T04:02:14;22.42;;;4.45;;
68940;SDS011;55982;51.476;7.552;2023-02-01T04:04:40;19.05;;;3.55;;
68940;SDS011;55982;51.476;7.552;2023-02-01T04:07:05;29.90;;;4.45;;
68940;SDS011;55982;51.476;7.552;2023-02-01T04:09:30;24.67;;;4.90;;
68940;SDS011;55982;51.476;7.552;2023-02-01T04:11:56;22.60;;;3.92;;
68940;SDS011;55982;51.476;7.552;2023-02-01T04:14:21;18.70;;;4.13;;
68940;SDS011;55982;51.476;7.552;2023-02-01T04:16:47;25.92;;;4.93;;
68940;SDS011;55982;51.476;7.552;2023-02-01T04:19:12;18.90;;;4.38;;
68940;SDS011;55982;51.476;7.552;2023-02-01T04:21:37;24.75;;;4.15;;
68940;SDS011;55982;51.476;7.552;2023-02-01T04:24:03;19.80;;;4.35;;
68940;SDS011;55982;51.476;7.552;2023-02-01T04:26:29;21.48;;;4.63;;
68940;SDS011;55982;51.476;7.552;2023-02-01T04:28:54;25.88;;;4.43;;
68940;SDS011;55982;51.476;7.552;2023-02-01T04:31:19;20.27;;;4.68;;
68940;SDS011;55982;51.476;7.552;2023-02-01T04:33:53;19.83;;;4.50;;
68940;SDS011;55982;51.476;7.552;2023-02-01T04:36:22;22.95;;;4.38;;
68940;SDS011;55982;51.476;7.552;2023-02-01T04:38:51;22.25;;;4.75;;
68940;SDS011;55982;51.476;7.552;2023-02-01T04:41:17;26.00;;;4.90;;
68940;SDS011;55982;51.476;7.552;2023-02-01T04:43:47;17.27;;;4.35;;
68940;SDS011;55982;51.476;7.552;2023-02-01T04:46:13;26.67;;;4.90;;
68940;SDS011;55982;51.476;7.552;2023-02-01T04:48:39;22.52;;;4.88;;
68940;SDS011;55982;51.476;7.552;2023-02-01T04:51:05;29.35;;;4.75;;
68940;SDS011;55982;51.476;7.552;2023-02-01T04:53:30;22.65;;;4.45;;
68940;SDS011;55982;51.476;7.552;2023-02-01T04:55:55;24.15;;;5.03;;
68940;SDS011;55982;51.476;7.552;2023-02-01T04:58:21;23.50;;;4.50;;
68940;SDS011;55982;51.476;7.552;2023-02-01T05:00:46;26.27;;;4.88;;
68940;SDS011;55982;51.476;7.552;2023-02-01T05:03:12;31.50;;;5.50;;
68940;SDS011;55982;51.476;7.552;2023-02-01T05:05:37;31.20;;;5.28;;
68940;SDS011;55982;51.476;7.552;2023-02-01T05:08:02;31.60;;;5.90;;
68940;SDS011;55982;51.476;7.552;2023-02-01T05:10:28;25.98;;;4.93;;
68940;SDS011;55982;51.476;7.552;2023-02-01T05:12:54;20.30;;;4.70;;
68940;SDS011;55982;51.476;7.552;2023-02-01T05:15:38;31.15;;;5.63;;
68940;SDS011;55982;51.476;7.552;2023-02-01T05:18:03;28.45;;;5.97;;
68940;SDS011;55982;51.476;7.552;2023-02-01T05:20:29;21.70;;;5.53;;
68940;SDS011;55982;51.476;7.552;2023-02-01T05:22:54;39.10;;;6.60;;
68940;SDS011;55982;51.476;7.552;2023-02-01T05:25:20;31.25;;;6.00;;
68940;SDS011;55982;51.476;7.552;2023-02-01T05:27:45;21.13;;;5.65;;
68940;SDS011;55982;51.476;7.552;2023-02-01T05:30:11;24.45;;;5.72;;
68940;SDS011;55982;51.476;7.552;2023-02-01T05:32:36;27.88;;;4.97;;
68940;SDS011;55982;51.476;7.552;2023-02-01T05:35:02;24.27;;;4.85;;
68940;SDS011;55982;51.476;7.552;2023-02-01T05:37:27;33.35;;;5.32;;
68940;SDS011;55982;51.476;7.552;2023-02-01T05:39:53;20.80;;;4.90;;
68940;SDS011;55982;51.476;7.552;2023-02-01T05:42:18;26.70;;;5.07;;
68940;SDS011;55982;51.476;7.552;2023-02-01T05:44:44;37.53;;;6.07;;
68940;SDS011;55982;51.476;7.552;2023-02-01T05:47:09;30.92;;;4.93;;
68940;SDS011;55982;51.476;7.552;2023-02-01T05:49:35;27.13;;;5.35;;
68940;SDS011;55982;51.476;7.552;2023-02-01T05:52:00;29.60;;;4.70;;
68940;SDS011;55982;51.476;7.552;2023-02-01T05:54:26;35.67;;;5.43;;
68940;SDS011;55982;51.476;7.552;2023-02-01T05:56:51;32.55;;;5.03;;
68940;SDS011;55982;51.476;7.552;2023-02-01T05:59:17;26.02;;;5.38;;
68940;SDS011;55982;51.476;7.552;2023-02-01T06:01:42;24.05;;;5.25;;
68940;SDS011;55982;51.476;7.552;2023-02-01T06:04:08;23.20;;;4.55;;
68940;SDS011;55982;51.476;7.552;2023-02-01T06:06:33;25.90;;;5.10;;
68940;SDS011;55982;51.476;7.552;2023-02-01T06:08:59;26.90;;;4.70;;
68940;SDS011;55982;51.476;7.552;2023-02-01T06:11:25;26.42;;;4.93;;
68940;SDS011;55982;51.476;7.552;2023-02-01T06:13:50;21.92;;;5.38;;
68940;SDS011;55982;51.476;7.552;2023-02-01T06:16:15;21.52;;;5.28;;
68940;SDS011;55982;51.476;7.552;2023-02-01T06:18:41;35.03;;;5.82;;
68940;SDS011;55982;51.476;7.552;2023-02-01T06:21:07;30.65;;;5.78;;
68940;SDS011;55982;51.476;7.552;2023-02-01T06:23:33;35.08;;;8.15;;
68940;SDS011;55982;51.476;7.552;2023-02-01T06:26:00;37.10;;;9.40;;
68940;SDS011;55982;51.476;7.552;2023-02-01T06:28:30;34.08;;;5.78;;
68940;SDS011;55982;51.476;7.552;2023-02-01T06:30:56;24.90;;;4.30;;
68940;SDS011;55982;51.476;7.552;2023-02-01T06:33:22;28.02;;;6.13;;
68940;SDS011;55982;51.476;7.552;2023-02-01T06:35:55;29.08;;;5.78;;
68940;SDS011;55982;51.476;7.552;2023-02-01T06:38:21;25.33;;;5.57;;
68940;SDS011;55982;51.476;7.552;2023-02-01T06:40:51;28.25;;;5.80;;
68940;SDS011;55982;51.476;7.552;2023-02-01T06:43:17;28.92;;;5.65;;
68940;SDS011;55982;51.476;7.552;2023-02-01T06:45:43;27.50;;;5.22;;
68940;SDS011;55982;51.476;7.552;2023-02-01T06:48:08;30.13;;;5.95;;
68940;SDS011;55982;51.476;7.552;2023-02-01T06:50:33;28.35;;;6.13;;
68940;SDS011;55982;51.476;7.552;2023-02-01T06:53:00;31.73;;;7.00;;
68940;SDS011;55982;51.476;7.552;2023-02-01T06:55:25;23.50;;;5.72;;
68940;SDS011;55982;51.476;7.552;2023-02-01T06:57:54;29.30;;;6.05;;
68940;SDS011;55982;51.476;7.552;2023-02-01T07:00:20;34.55;;;5.60;;
68940;SDS011;55982;51.476;7.552;2023-02-01T07:02:46;35.92;;;5.80;;
68940;SDS011;55982;51.476;7.552;2023-02-01T07:05:12;32.42;;;6.05;;
68940;SDS011;55982;51.476;7.552;2023-02-01T07:07:37;22.02;;;4.78;;
68940;SDS011;55982;51.476;7.552;2023-02-01T07:10:02;32.70;;;6.70;;
68940;SDS011;55982;51.476;7.552;2023-02-01T07:12:28;28.10;;;6.18;;
68940;SDS011;55982;51.476;7.552;2023-02-01T07:14:53;32.75;;;6.32;;
68940;SDS011;55982;51.476;7.552;2023-02-01T07:17:19;27.55;;;6.20;;
68940;SDS011;55982;51.476;7.552;2023-02-01T07:19:44;25.08;;;6.35;;
68940;SDS011;55982;51.476;7.552;2023-02-01T07:22:09;34.92;;;6.57;;
68940;SDS011;55982;51.476;7.552;2023-02-01T07:24:35;23.95;;;6.47;;
68940;SDS011;55982;51.476;7.552;2023-02-01T07:27:00;30.40;;;7.57;;
68940;SDS011;55982;51.476;7.552;2023-02-01T07:29:25;22.60;;;6.03;;
68940;SDS011;55982;51.476;7.552;2023-02-01T07:31:51;32.80;;;6.40;;
68940;SDS011;55982;51.476;7.552;2023-02-01T07:34:16;26.77;;;5.85;;
68940;SDS011;55982;51.476;7.552;2023-02-01T07:36:41;34.55;;;5.20;;
68940;SDS011;55982;51.476;7.552;2023-02-01T07:39:07;30.30;;;6.10;;
68940;SDS011;55982;51.476;7.552;2023-02-01T07:41:33;22.85;;;5.90;;
68940;SDS011;55982;51.476;7.552;2023-02-01T07:43:58;23.55;;;5.40;;
68940;SDS011;55982;51.476;7.552;2023-02-01T07:46:25;24.50;;;6.78;;
68940;SDS011;55982;51.476;7.552;2023-02-01T07:48:50;34.28;;;5.78;;
68940;SDS011;55982;51.476;7.552;2023-02-01T07:51:16;27.95;;;7.60;;
68940;SDS011;55982;51.476;7.552;2023-02-01T07:53:42;30.30;;;5.93;;
68940;SDS011;55982;51.476;7.552;2023-02-01T07:56:10;39.60;;;9.02;;
68940;SDS011;55982;51.476;7.552;2023-02-01T07:58:48;38.47;;;6.57;;
68940;SDS011;55982;51.476;7.552;2023-02-01T08:01:24;34.97;;;6.38;;
68940;SDS011;55982;51.476;7.552;2023-02-01T08:03:51;28.48;;;7.38;;
68940;SDS011;55982;51.476;7.552;2023-02-01T08:06:20;27.67;;;7.50;;
68940;SDS011;55982;51.476;7.552;2023-02-01T08:08:47;40.92;;;8.15;;
68940;SDS011;55982;51.476;7.552;2023-02-01T08:11:14;28.42;;;7.13;;
68940;SDS011;55982;51.476;7.552;2023-02-01T08:13:41;23.85;;;6.57;;
68940;SDS011;55982;51.476;7.552;2023-02-01T08:16:08;25.65;;;6.45;;
68940;SDS011;55982;51.476;7.552;2023-02-01T08:18:35;33.70;;;7.13;;
68940;SDS011;55982;51.476;7.552;2023-02-01T08:21:06;34.08;;;8.07;;
68940;SDS011;55982;51.476;7.552;2023-02-01T08:23:43;23.63;;;6.63;;
68940;SDS011;55982;51.476;7.552;2023-02-01T08:26:10;30.38;;;8.07;;
68940;SDS011;55982;51.476;7.552;2023-02-01T08:28:39;29.52;;;8.68;;
68940;SDS011;55982;51.476;7.552;2023-02-01T08:31:07;25.88;;;7.60;;
68940;SDS011;55982;51.476;7.552;2023-02-01T08:33:34;33.13;;;8.00;;
68940;SDS011;55982;51.476;7.552;2023-02-01T08:36:02;36.13;;;7.97;;
68940;SDS011;55982;51.476;7.552;2023-02-01T08:38:29;28.63;;;8.00;;
68940;SDS011;55982;51.476;7.552;2023-02-01T08:40:54;37.25;;;7.30;;
68940;SDS011;55982;51.476;7.552;2023-02-01T08:43:19;36.85;;;8.80;;
68940;SDS011;55982;51.476;7.552;2023-02-01T08:45:45;30.30;;;8.63;;
68940;SDS011;55982;51.476;7.552;2023-02-01T08:48:11;31.40;;;7.90;;
68940;SDS011;55982;51.476;7.552;2023-02-01T08:50:36;30.08;;;8.05;;
68940;SDS011;55982;51.476;7.552;2023-02-01T08:53:01;25.73;;;6.95;;
68940;SDS011;55982;51.476;7.552;2023-02-01T08:55:27;28.52;;;8.63;;
68940;SDS011;55982;51.476;7.552;2023-02-01T08:57:52;30.70;;;8.43;;
68940;SDS011;55982;51.476;7.552;2023-02-01T09:00:18;27.60;;;8.05;;
68940;SDS011;55982;51.476;7.552;2023-02-01T09:02:43;30.23;;;8.93;;
68940;SDS011;55982;51.476;7.552;2023-02-01T09:05:10;34.15;;;8.65;;
68940;SDS011;55982;51.476;7.552;2023-02-01T09:07:36;37.30;;;8.05;;
68940;SDS011;55982;51.476;7.552;2023-02-01T09:10:02;23.27;;;6.65;;
68940;SDS011;55982;51.476;7.552;2023-02-01T09:12:29;29.15;;;8.05;;
68940;SDS011;55982;51.476;7.552;2023-02-01T09:14:56;27.15;;;7.88;;
68940;SDS011;55982;51.476;7.552;2023-02-01T09:17:24;40.72;;;9.25;;
68940;SDS011;55982;51.476;7.552;2023-02-01T09:19:53;26.30;;;7.90;;
68940;SDS011;55982;51.476;7.552;2023-02-01T09:22:18;27.55;;;8.57;;
68940;SDS011;55982;51.476;7.552;2023-02-01T09:24:44;31.63;;;8.93;;
68940;SDS011;55982;51.476;7.552;2023-02-01T09:27:09;24.02;;;7.32;;
68940;SDS011;55982;51.476;7.552;2023-02-01T09:29:35;26.40;;;8.25;;
68940;SDS011;55982;51.476;7.552;2023-02-01T09:32:00;28.95;;;7.90;;
68940;SDS011;55982;51.476;7.552;2023-02-01T09:34:25;28.58;;;7.72;;
68940;SDS011;55982;51.476;7.552;2023-02-01T09:36:51;28.30;;;7.68;;
68940;SDS011;55982;51.476;7.552;2023-02-01T09:39:17;27.65;;;8.02;;
68940;SDS011;55982;51.476;7.552;2023-02-01T09:41:59;24.20;;;7.40;;
68940;SDS011;55982;51.476;7.552;2023-02-01T09:47:24;22.38;;;7.65;;
68940;SDS011;55982;51.476;7.552;2023-02-01T09:50:04;24.58;;;7.65;;
68940;SDS011;55982;51.476;7.552;2023-02-01T09:52:36;31.73;;;8.52;;
68940;SDS011;55982;51.476;7.552;2023-02-01T09:55:31;33.95;;;8.00;;
68940;SDS011;55982;51.476;7.552;2023-02-01T10:01:17;26.92;;;8.05;;
68940;SDS011;55982;51.476;7.552;2023-02-01T10:03:45;31.75;;;8.50;;
68940;SDS011;55982;51.476;7.552;2023-02-01T10:12:15;29.25;;;7.88;;
68940;SDS011;55982;51.476;7.552;2023-02-01T10:14:54;23.88;;;8.00;;
68940;SDS011;55982;51.476;7.552;2023-02-01T10:22:45;28.08;;;9.18;;
68940;SDS011;55982;51.476;7.552;2023-02-01T10:27:50;37.35;;;9.82;;
68940;SDS011;55982;51.476;7.552;2023-02-01T10:30:18;27.48;;;9.05;;
68940;SDS011;55982;51.476;7.552;2023-02-01T10:32:47;27.02;;;9.95;;
68940;SDS011;55982;51.476;7.552;2023-02-01T10:35:18;30.95;;;10.10;;
68940;SDS011;55982;51.476;7.552;2023-02-01T10:37:49;22.15;;;9.27;;
68940;SDS011;55982;51.476;7.552;2023-02-01T10:40:19;27.63;;;10.15;;
68940;SDS011;55982;51.476;7.552;2023-02-01T10:42:49;22.92;;;9.02;;
68940;SDS011;55982;51.476;7.552;2023-02-01T10:45:19;24.17;;;8.52;;
68940;SDS011;55982;51.476;7.552;2023-02-01T10:47:50;27.92;;;8.60;;
68940;SDS011;55982;51.476;7.552;2023-02-01T10:55:54;26.00;;;8.57;;
68940;SDS011;55982;51.476;7.552;2023-02-01T10:58:28;33.88;;;10.27;;
68940;SDS011;55982;51.476;7.552;2023-02-01T11:01:00;30.67;;;9.88;;
68940;SDS011;55982;51.476;7.552;2023-02-01T11:03:54;28.92;;;10.00;;
68940;SDS011;55982;51.476;7.552;2023-02-01T11:09:01;28.55;;;9.65;;
68940;SDS011;55982;51.476;7.552;2023-02-01T11:14:16;26.92;;;9.20;;
68940;SDS011;55982;51.476;7.552;2023-02-01T11:16:56;30.85;;;8.68;;
68940;SDS011;55982;51.476;7.552;2023-02-01T11:19:24;28.98;;;8.55;;
68940;SDS011;55982;51.476;7.552;2023-02-01T11:21:54;28.40;;;8.23;;
68940;SDS011;55982;51.476;7.552;2023-02-01T11:24:27;28.70;;;9.00;;
68940;SDS011;55982;51.476;7.552;2023-02-01T11:26:57;29.75;;;9.32;;
68940;SDS011;55982;51.476;7.552;2023-02-01T11:29:24;27.95;;;8.98;;
68940;SDS011;55982;51.476;7.552;2023-02-01T11:31:58;21.80;;;7.28;;
68940;SDS011;55982;51.476;7.552;2023-02-01T11:34:25;30.48;;;8.52;;
68940;SDS011;55982;51.476;7.552;2023-02-01T11:36:58;33.10;;;8.20;;
68940;SDS011;55982;51.476;7.552;2023-02-01T11:39:29;32.75;;;8.35;;
68940;SDS011;55982;51.476;7.552;2023-02-01T11:42:14;28.33;;;8.27;;
68940;SDS011;55982;51.476;7.552;2023-02-01T11:44:42;29.30;;;9.05;;
68940;SDS011;55982;51.476;7.552;2023-02-01T11:47:18;26.55;;;7.85;;
68940;SDS011;55982;51.476;7.552;2023-02-01T11:49:47;26.50;;;7.93;;
68940;SDS011;55982;51.476;7.552;2023-02-01T12:08:42;26.42;;;8.90;;
68940;SDS011;55982;51.476;7.552;2023-02-01T12:19:55;27.67;;;9.98;;
68940;SDS011;55982;51.476;7.552;2023-02-01T12:25:30;27.77;;;9.63;;
68940;SDS011;55982;51.476;7.552;2023-02-01T12:28:17;31.45;;;10.10;;
68940;SDS011;55982;51.476;7.552;2023-02-01T12:36:44;29.30;;;11.05;;
68940;SDS011;55982;51.476;7.552;2023-02-01T12:40:07;24.73;;;10.50;;
68940;SDS011;55982;51.476;7.552;2023-02-01T12:47:26;25.98;;;8.93;;
68940;SDS011;55982;51.476;7.552;2023-02-01T12:52:52;27.92;;;9.30;;
68940;SDS011;55982;51.476;7.552;2023-02-01T12:55:20;32.08;;;10.05;;
68940;SDS011;55982;51.476;7.552;2023-02-01T12:58:11;29.95;;;8.05;;
68940;SDS011;55982;51.476;7.552;2023-02-01T13:00:59;27.00;;;8.35;;
68940;SDS011;55982;51.476;7.552;2023-02-01T13:03:36;28.60;;;8.48;;
68940;SDS011;55982;51.476;7.552;2023-02-01T13:06:09;28.63;;;8.90;;
68940;SDS011;55982;51.476;7.552;2023-02-01T13:08:42;28.40;;;7.82;;
68940;SDS011;55982;51.476;7.552;2023-02-01T13:11:15;27.13;;;7.97;;
68940;SDS011;55982;51.476;7.552;2023-02-01T13:13:48;22.98;;;7.85;;
68940;SDS011;55982;51.476;7.552;2023-02-01T13:22:13;33.45;;;8.43;;
68940;SDS011;55982;51.476;7.552;2023-02-01T13:24:45;24.98;;;7.90;;
68940;SDS011;55982;51.476;7.552;2023-02-01T13:27:14;27.52;;;7.80;;
68940;SDS011;55982;51.476;7.552;2023-02-01T13:29:47;21.60;;;7.20;;
68940;SDS011;55982;51.476;7.552;2023-02-01T13:43:44;28.83;;;6.88;;
68940;SDS011;55982;51.476;7.552;2023-02-01T13:46:15;43.90;;;17.05;;
68940;SDS011;55982;51.476;7.552;2023-02-01T13:48:50;40.35;;;7.20;;
68940;SDS011;55982;51.476;7.552;2023-02-01T13:53:56;29.27;;;5.90;;
68940;SDS011;55982;51.476;7.552;2023-02-01T13:56:22;24.83;;;5.65;;
68940;SDS011;55982;51.476;7.552;2023-02-01T13:58:49;26.73;;;5.53;;
68940;SDS011;55982;51.476;7.552;2023-02-01T14:11:45;27.92;;;4.70;;
68940;SDS011;55982;51.476;7.552;2023-02-01T14:16:39;18.80;;;4.68;;
68940;SDS011;55982;51.476;7.552;2023-02-01T14:19:09;25.05;;;4.43;;
68940;SDS011;55982;51.476;7.552;2023-02-01T14:21:49;33.35;;;5.18;;
68940;SDS011;55982;51.476;7.552;2023-02-01T14:24:24;21.58;;;5.20;;
68940;SDS011;55982;51.476;7.552;2023-02-01T14:26:52;24.58;;;4.38;;
68940;SDS011;55982;51.476;7.552;2023-02-01T14:29:22;25.60;;;5.85;;
68940;SDS011;55982;51.476;7.552;2023-02-01T14:31:54;27.60;;;5.50;;
68940;SDS011;55982;51.476;7.552;2023-02-01T14:37:33;23.50;;;5.53;;
68940;SDS011;55982;51.476;7.552;2023-02-01T14:47:47;29.02;;;5.65;;
68940;SDS011;55982;51.476;7.552;2023-02-01T15:01:31;34.03;;;5.80;;
68940;SDS011;55982;51.476;7.552;2023-02-01T15:04:16;34.45;;;5.70;;
68940;SDS011;55982;51.476;7.552;2023-02-01T15:06:54;22.30;;;4.93;;
68940;SDS011;55982;51.476;7.552;2023-02-01T15:09:26;19.85;;;5.30;;
68940;SDS011;55982;51.476;7.552;2023-02-01T15:14:40;20.30;;;5.35;;
68940;SDS011;55982;51.476;7.552;2023-02-01T15:17:25;21.45;;;5.30;;
68940;SDS011;55982;51.476;7.552;2023-02-01T15:19:59;17.90;;;5.25;;
68940;SDS011;55982;51.476;7.552;2023-02-01T15:22:27;19.30;;;4.60;;
68940;SDS011;55982;51.476;7.552;2023-02-01T15:24:58;22.40;;;4.93;;
68940;SDS011;55982;51.476;7.552;2023-02-01T15:27:25;25.40;;;6.05;;
68940;SDS011;55982;51.476;7.552;2023-02-01T15:29:52;28.45;;;5.03;;
68940;SDS011;55982;51.476;7.552;2023-02-01T15:34:56;20.95;;;5.03;;
68940;SDS011;55982;51.476;7.552;2023-02-01T15:37:22;27.60;;;5.72;;
68940;SDS011;55982;51.476;7.552;2023-02-01T15:45:21;19.23;;;5.63;;
68940;SDS011;55982;51.476;7.552;2023-02-01T15:47:51;25.95;;;5.80;;
68940;SDS011;55982;51.476;7.552;2023-02-01T15:50:20;26.40;;;6.38;;
68940;SDS011;55982;51.476;7.552;2023-02-01T15:52:46;34.90;;;6.78;;
68940;SDS011;55982;51.476;7.552;2023-02-01T15:58:14;31.95;;;5.57;;
68940;SDS011;55982;51.476;7.552;2023-02-01T16:00:47;30.85;;;6.05;;
68940;SDS011;55982;51.476;7.552;2023-02-01T16:06:07;23.30;;;4.82;;
68940;SDS011;55982;51.476;7.552;2023-02-01T16:08:35;29.83;;;6.47;;
68940;SDS011;55982;51.476;7.552;2023-02-01T16:13:33;63.83;;;20.92;;
68940;SDS011;55982;51.476;7.552;2023-02-01T16:15:59;31.52;;;6.68;;
68940;SDS011;55982;51.476;7.552;2023-02-01T16:18:25;28.13;;;8.57;;
68940;SDS011;55982;51.476;7.552;2023-02-01T16:20:50;26.40;;;5.78;;
68940;SDS011;55982;51.476;7.552;2023-02-01T16:23:16;23.42;;;6.03;;
68940;SDS011;55982;51.476;7.552;2023-02-01T16:25:41;26.02;;;5.82;;
68940;SDS011;55982;51.476;7.552;2023-02-01T16:28:07;23.92;;;5.63;;
68940;SDS011;55982;51.476;7.552;2023-02-01T16:30:33;29.80;;;7.05;;
68940;SDS011;55982;51.476;7.552;2023-02-01T16:33:00;24.10;;;6.38;;
68940;SDS011;55982;51.476;7.552;2023-02-01T16:35:34;32.60;;;5.72;;
68940;SDS011;55982;51.476;7.552;2023-02-01T16:38:05;18.63;;;5.80;;
68940;SDS011;55982;51.476;7.552;2023-02-01T16:40:37;24.13;;;5.10;;
68940;SDS011;55982;51.476;7.552;2023-02-01T16:43:37;23.55;;;6.25;;
68940;SDS011;55982;51.476;7.552;2023-02-01T16:45:58;28.08;;;6.05;;
68940;SDS011;55982;51.476;7.552;2023-02-01T16:48:29;21.30;;;5.68;;
68940;SDS011;55982;51.476;7.552;2023-02-01T16:51:02;23.48;;;6.20;;
68940;SDS011;55982;51.476;7.552;2023-02-01T16:53:32;26.45;;;6.97;;
68940;SDS011;55982;51.476;7.552;2023-02-01T16:55:58;26.77;;;7.45;;
68940;SDS011;55982;51.476;7.552;2023-02-01T16:58:24;33.38;;;8.07;;
68940;SDS011;55982;51.476;7.552;2023-02-01T17:00:50;29.02;;;8.30;;
68940;SDS011;55982;51.476;7.552;2023-02-01T17:03:16;25.02;;;7.63;;
68940;SDS011;55982;51.476;7.552;2023-02-01T17:05:52;28.50;;;8.98;;
68940;SDS011;55982;51.476;7.552;2023-02-01T17:08:24;23.25;;;7.25;;
68940;SDS011;55982;51.476;7.552;2023-02-01T17:10:54;27.23;;;7.93;;
68940;SDS011;55982;51.476;7.552;2023-02-01T17:13:20;22.08;;;7.45;;
68940;SDS011;55982;51.476;7.552;2023-02-01T17:15:48;40.13;;;8.70;;
68940;SDS011;55982;51.476;7.552;2023-02-01T17:18:17;35.05;;;9.07;;
68940;SDS011;55982;51.476;7.552;2023-02-01T17:20:43;37.88;;;11.07;;
68940;SDS011;55982;51.476;7.552;2023-02-01T17:23:11;38.88;;;10.98;;
68940;SDS011;55982;51.476;7.552;2023-02-01T17:25:37;28.45;;;9.05;;
68940;SDS011;55982;51.476;7.552;2023-02-01T17:28:02;25.50;;;7.22;;
68940;SDS011;55982;51.476;7.552;2023-02-01T17:30:28;21.15;;;6.63;;
68940;SDS011;55982;51.476;7.552;2023-02-01T17:32:55;23.92;;;6.25;;
68940;SDS011;55982;51.476;7.552;2023-02-01T17:35:22;18.85;;;6.32;;
68940;SDS011;55982;51.476;7.552;2023-02-01T17:37:49;14.43;;;5.78;;
68940;SDS011;55982;51.476;7.552;2023-02-01T17:40:15;18.90;;;6.00;;
68940;SDS011;55982;51.476;7.552;2023-02-01T17:42:41;18.42;;;4.85;;
68940;SDS011;55982;51.476;7.552;2023-02-01T17:47:44;14.75;;;4.47;;
68940;SDS011;55982;51.476;7.552;2023-02-01T17:50:11;15.05;;;5.65;;